Search for airport 
image banner adimage banner adimage banner ad
image banner ad

3Y2 - George L Scott Muni

Located in West Union, United States

ICAO - 3Y2, IATA -

Data provided by Airmate  

General information

Coordinates: N42°59'7" W91°47'26"
Elevation is 1232 feet MSL.
Magnetic variation is -01° East
View others Airports in Iowa

Operational data

Special qualification required
Current time UTC:
Current local time:
Weather at : KDEH - Decorah Muni ( 33 km )
METAR: KDEH 150935Z AUTO 00000KT 10SM 14/13 A3009 RMK AO2
View NOTAMs / SUP AIP / TFR affecting this airport [VIEW]
Communications frequencies: [VIEW]

Runways:

RWY identifierQFULength (ft)Width (ft)SurfaceLDA (ft)
17173°414960CONC
35353°414960CONC

Airport contact information

Address: West Union United States

Satellite view of 3Y2